Time;durP1;ratioP1;P1;durP2;ratioP2;P2;SDS_P1;SDS_P2;PMS_P1;PMS_P2;Temp;Humidity;BMP_temperature;BMP_pressure;BME280_temperature;BME280_humidity;BME280_pressure;Samples;Min_cycle;Max_cycle;Signal;HPM_P1;HPM_P2
2023/10/14 00:01:28;;;;;;;1.00;0.63;;;16.00;99.90;;;;;;5033730;28;20018;-78
2023/10/14 00:03:55;;;;;;;1.20;0.52;;;15.90;99.90;;;;;;5032675;28;20519;-75
2023/10/14 00:06:22;;;;;;;1.40;0.65;;;15.90;99.90;;;;;;5031996;28;20045;-78
2023/10/14 00:08:57;;;;;;;0.10;0.10;;;15.80;99.90;;;;;;5033545;28;20496;-76
2023/10/14 00:11:24;;;;;;;0.10;0.10;;;15.80;99.90;;;;;;5033411;28;20029;-76
2023/10/14 00:13:52;;;;;;;0.30;0.30;;;15.80;99.90;;;;;;5033695;28;20087;-77
2023/10/14 00:19:04;;;;;;;4.60;2.25;;;15.70;99.90;;;;;;5033436;28;20103;-77
2023/10/14 00:21:33;;;;;;;0.75;0.57;;;15.70;99.90;;;;;;5032978;28;20148;-76
2023/10/14 00:24:02;;;;;;;8.60;0.52;;;15.70;99.90;;;;;;5033365;28;20025;-77
2023/10/14 00:26:32;;;;;;;0.00;0.00;;;15.70;99.90;;;;;;5033332;28;20068;-77
2023/10/14 00:29:19;;;;;;;14.23;1.10;;;15.80;99.90;;;;;;5031772;28;20438;-76
2023/10/14 00:31:49;;;;;;;0.00;0.00;;;15.80;99.90;;;;;;5033094;28;20038;-76
2023/10/14 00:34:15;;;;;;;0.20;0.20;;;15.70;99.90;;;;;;5031797;28;20037;-77
2023/10/14 00:36:42;;;;;;;0.30;0.30;;;15.70;99.90;;;;;;5033050;28;20387;-76
2023/10/14 00:39:23;;;;;;;0.43;0.43;;;15.50;99.90;;;;;;5032686;28;20473;-77
2023/10/14 00:41:50;;;;;;;0.00;0.00;;;15.60;99.90;;;;;;5033242;28;20037;-77
2023/10/14 00:44:21;;;;;;;0.00;0.00;;;15.50;99.90;;;;;;5031923;28;20021;-77
2023/10/14 00:46:50;;;;;;;2.37;2.27;;;15.60;99.90;;;;;;5033047;28;20487;-77
2023/10/14 00:49:17;;;;;;;5.38;0.80;;;15.50;99.90;;;;;;5017012;28;20777;-77
2023/10/14 00:51:49;;;;;;;15.32;3.40;;;15.50;99.90;;;;;;5012843;28;20141;-77
2023/10/14 00:57:19;;;;;;;1.23;0.50;;;15.50;99.90;;;;;;5012893;28;20037;-76
2023/10/14 00:59:47;;;;;;;0.00;0.00;;;15.40;99.90;;;;;;5013113;28;20069;-77
2023/10/14 01:02:14;;;;;;;1.65;0.85;;;15.40;99.90;;;;;;5012769;28;20033;-78
2023/10/14 01:04:47;;;;;;;2.53;0.80;;;15.30;99.90;;;;;;5012918;28;20034;-77
2023/10/14 01:07:13;;;;;;;0.10;0.10;;;15.20;99.90;;;;;;5011198;28;20390;-76
2023/10/14 01:12:37;;;;;;;0.15;0.15;;;15.00;99.90;;;;;;5012682;28;20070;-80
2023/10/14 01:15:05;;;;;;;0.00;0.00;;;15.10;99.90;;;;;;5012732;28;20048;-77
2023/10/14 01:17:30;;;;;;;4.53;2.50;;;15.00;99.90;;;;;;5012416;28;20042;-77
2023/10/14 01:22:51;;;;;;;0.65;0.65;;;14.90;99.90;;;;;;5012541;28;20036;-77
2023/10/14 01:25:18;;;;;;;0.17;0.17;;;14.80;99.90;;;;;;5012828;28;20164;-76
2023/10/14 01:27:45;;;;;;;9.00;0.98;;;14.80;99.90;;;;;;5011331;28;20148;-77
2023/10/14 01:30:18;;;;;;;0.00;0.00;;;14.70;99.90;;;;;;5028207;28;20029;-77
2023/10/14 01:35:31;;;;;;;0.50;0.50;;;14.60;99.90;;;;;;5013003;28;20364;-77
2023/10/14 01:37:59;;;;;;;1.83;0.40;;;14.60;99.90;;;;;;5010993;28;20046;-76
2023/10/14 01:41:10;;;;;;;0.80;0.80;;;14.60;99.90;;;;;;5011725;28;20045;-76
2023/10/14 01:43:16;;;;;;;0.50;0.38;;;14.60;99.90;;;;;;5007035;28;20414;-76
2023/10/14 01:46:00;;;;;;;4.95;0.98;;;14.40;99.90;;;;;;5012522;28;20109;-76
2023/10/14 01:48:32;;;;;;;0.55;0.45;;;14.30;99.90;;;;;;5012069;28;20385;-77
2023/10/14 01:50:58;;;;;;;0.00;0.00;;;14.30;99.90;;;;;;5012779;28;20022;-76
2023/10/14 01:53:31;;;;;;;0.70;0.63;;;14.30;99.90;;;;;;5011211;28;20029;-76
2023/10/14 01:56:00;;;;;;;0.05;0.05;;;14.20;99.90;;;;;;5011283;28;20020;-77
2023/10/14 02:00:58;;;;;;;0.40;0.40;;;14.00;99.90;;;;;;5027493;28;20518;-76
2023/10/14 02:03:26;;;;;;;0.13;0.13;;;13.80;99.90;;;;;;5012481;28;20022;-75
2023/10/14 02:05:52;;;;;;;0.20;0.20;;;13.70;99.90;;;;;;5012524;28;20105;-76
2023/10/14 02:08:23;;;;;;;2.33;0.73;;;13.60;99.90;;;;;;5012211;28;20589;-76
2023/10/14 02:10:50;;;;;;;0.00;0.00;;;13.50;99.90;;;;;;5011141;28;20157;-75
2023/10/14 02:13:21;;;;;;;0.00;0.00;;;13.40;99.90;;;;;;5012582;28;20033;-76
2023/10/14 02:15:48;;;;;;;17.80;0.88;;;13.30;99.90;;;;;;5027222;28;20056;-75
2023/10/14 02:18:21;;;;;;;0.00;0.00;;;13.30;99.90;;;;;;5011041;28;20062;-75
2023/10/14 02:20:57;;;;;;;1.55;0.40;;;13.20;99.90;;;;;;5013256;28;20096;-78
2023/10/14 02:23:29;;;;;;;0.15;0.15;;;13.20;99.90;;;;;;5015971;28;20025;-76
2023/10/14 02:25:58;;;;;;;0.00;0.00;;;13.10;99.90;;;;;;4998234;28;20025;-76
2023/10/14 02:28:30;;;;;;;0.98;0.85;;;13.00;99.90;;;;;;5031140;28;20044;-76
2023/10/14 02:31:00;;;;;;;10.55;1.85;;;13.00;99.90;;;;;;5015251;28;20105;-75
2023/10/14 02:33:26;;;;;;;5.63;0.55;;;12.80;99.90;;;;;;5015856;28;20403;-75
2023/10/14 02:35:56;;;;;;;2.03;0.95;;;12.80;99.90;;;;;;5030503;28;20386;-77
2023/10/14 02:38:24;;;;;;;0.22;0.20;;;12.80;99.90;;;;;;5014138;28;20068;-75
2023/10/14 02:40:50;;;;;;;1.55;0.73;;;12.80;99.90;;;;;;5015339;28;20034;-75
2023/10/14 02:43:17;;;;;;;0.93;0.45;;;12.70;99.90;;;;;;5030787;28;20029;-76
2023/10/14 02:45:45;;;;;;;0.00;0.00;;;12.80;99.90;;;;;;5013884;28;20375;-75
2023/10/14 02:48:11;;;;;;;0.00;0.00;;;12.70;99.90;;;;;;5030576;28;20030;-76
2023/10/14 02:50:37;;;;;;;0.65;0.25;;;12.60;99.90;;;;;;5013855;28;20022;-76
2023/10/14 02:53:21;;;;;;;0.13;0.13;;;12.70;99.90;;;;;;5015457;28;20030;-76
2023/10/14 02:55:57;;;;;;;0.10;0.10;;;12.60;99.90;;;;;;5030564;28;20076;-76
2023/10/14 02:58:23;;;;;;;0.15;0.15;;;12.50;99.90;;;;;;5014919;28;20128;-76
2023/10/14 03:00:59;;;;;;;0.70;0.05;;;12.60;99.90;;;;;;5014728;28;20104;-76
2023/10/14 03:03:25;;;;;;;0.10;0.10;;;12.50;99.90;;;;;;5015226;28;20034;-76
2023/10/14 03:05:53;;;;;;;0.10;0.10;;;12.60;99.90;;;;;;5015100;28;20073;-76
2023/10/14 03:08:22;;;;;;;0.00;0.00;;;12.50;99.90;;;;;;5013602;28;20398;-76
2023/10/14 03:10:59;;;;;;;10.15;0.80;;;12.60;99.90;;;;;;5014816;28;20121;-76
2023/10/14 03:13:29;;;;;;;0.55;0.55;;;12.60;99.90;;;;;;5014703;28;20057;-76
2023/10/14 03:15:55;;;;;;;0.20;0.10;;;12.60;99.90;;;;;;5014851;28;20030;-76
2023/10/14 03:18:30;;;;;;;0.00;0.00;;;12.60;99.90;;;;;;5030022;28;20084;-76
2023/10/14 03:23:27;;;;;;;0.00;0.00;;;12.50;99.90;;;;;;5014894;28;20034;-76
2023/10/14 03:26:01;;;;;;;0.50;0.50;;;12.50;99.90;;;;;;5014438;28;20049;-77
2023/10/14 03:28:27;;;;;;;0.40;0.40;;;12.40;99.90;;;;;;5014513;28;20038;-76
2023/10/14 03:30:58;;;;;;;0.10;0.10;;;12.40;99.90;;;;;;5013979;28;20033;-76
2023/10/14 03:33:29;;;;;;;0.10;0.10;;;12.60;99.90;;;;;;5014692;28;20026;-75
2023/10/14 03:35:57;;;;;;;0.10;0.10;;;12.70;99.90;;;;;;5014371;28;20264;-78
2023/10/14 03:41:20;;;;;;;0.10;0.10;;;13.10;99.90;;;;;;5014188;28;20032;-77
2023/10/14 03:43:58;;;;;;;0.50;0.20;;;13.00;99.90;;;;;;5014078;28;20062;-77
2023/10/14 03:46:32;;;;;;;0.08;0.08;;;13.30;99.90;;;;;;5014256;28;20509;-77
2023/10/14 03:49:11;;;;;;;0.10;0.10;;;13.30;99.90;;;;;;5014047;28;20056;-77
2023/10/14 03:51:39;;;;;;;0.00;0.00;;;13.50;99.90;;;;;;5014492;28;20378;-77
2023/10/14 03:54:08;;;;;;;0.10;0.10;;;13.40;99.90;;;;;;5014276;28;20030;-77
2023/10/14 03:56:35;;;;;;;0.20;0.15;;;13.30;99.90;;;;;;5013980;28;20113;-76
2023/10/14 03:59:02;;;;;;;12.63;0.43;;;13.20;99.90;;;;;;5013661;28;20030;-76
2023/10/14 04:02:19;;;;;;;0.00;0.00;;;12.90;99.90;;;;;;5005604;28;20034;-77
2023/10/14 04:04:18;;;;;;;1.38;1.27;;;12.80;99.90;;;;;;5002553;28;20586;-77
2023/10/14 04:09:37;;;;;;;0.10;0.10;;;12.40;99.90;;;;;;5013407;28;20105;-76
2023/10/14 04:12:08;;;;;;;1.17;0.35;;;12.20;99.90;;;;;;5013274;28;20484;-78
2023/10/14 04:14:41;;;;;;;0.00;0.00;;;12.20;99.90;;;;;;5013830;28;20514;-76
2023/10/14 04:17:55;;;;;;;0.00;0.00;;;12.20;99.90;;;;;;5013274;28;20283;-77
2023/10/14 04:20:13;;;;;;;22.85;5.28;;;12.10;99.90;;;;;;5005245;28;20042;-77
2023/10/14 04:22:39;;;;;;;0.10;0.10;;;12.00;99.90;;;;;;5013070;28;20397;-76
2023/10/14 04:25:18;;;;;;;0.10;0.10;;;12.00;99.90;;;;;;5013399;28;20040;-77
2023/10/14 04:35:25;;;;;;;0.10;0.10;;;12.50;99.90;;;;;;5013273;28;20482;-76
2023/10/14 04:37:55;;;;;;;0.10;0.10;;;12.50;99.90;;;;;;5012726;28;20026;-76
2023/10/14 04:45:52;;;;;;;0.00;0.00;;;12.50;99.90;;;;;;5013134;28;20075;-76
2023/10/14 04:48:28;;;;;;;0.10;0.10;;;12.20;99.90;;;;;;5012953;28;20026;-76
2023/10/14 04:50:56;;;;;;;1.60;0.98;;;12.20;99.90;;;;;;5012838;28;20116;-76
2023/10/14 04:53:26;;;;;;;0.10;0.10;;;12.00;99.90;;;;;;5012844;28;20032;-76
2023/10/14 04:55:53;;;;;;;0.57;0.57;;;12.00;99.90;;;;;;5012708;28;20045;-76
2023/10/14 04:58:32;;;;;;;0.00;0.00;;;12.00;99.90;;;;;;5012743;28;20030;-76
2023/10/14 05:01:03;;;;;;;0.10;0.10;;;12.20;99.90;;;;;;5012771;28;20113;-78
2023/10/14 05:03:29;;;;;;;0.10;0.10;;;12.30;99.90;;;;;;5011327;28;20091;-77
2023/10/14 05:05:56;;;;;;;0.00;0.00;;;12.50;99.90;;;;;;5012944;28;20542;-76
2023/10/14 05:08:43;;;;;;;0.22;0.22;;;12.20;99.90;;;;;;5012568;28;20471;-76
2023/10/14 05:11:12;;;;;;;0.00;0.00;;;12.00;99.90;;;;;;5028168;28;20506;-75
2023/10/14 05:16:26;;;;;;;0.10;0.10;;;12.10;99.90;;;;;;5028183;28;20033;-75
2023/10/14 05:19:06;;;;;;;0.00;0.00;;;12.40;99.90;;;;;;5012632;28;20057;-76
2023/10/14 05:21:35;;;;;;;0.00;0.00;;;12.30;99.90;;;;;;5013046;28;20034;-76
2023/10/14 05:24:09;;;;;;;0.10;0.10;;;12.20;99.90;;;;;;5012330;28;20025;-76
2023/10/14 05:26:48;;;;;;;0.20;0.20;;;12.10;99.90;;;;;;5012957;28;20160;-76
2023/10/14 05:29:17;;;;;;;0.10;0.10;;;11.90;99.90;;;;;;5011431;28;20469;-77
2023/10/14 05:31:48;;;;;;;1.48;0.32;;;12.00;99.90;;;;;;5012905;28;20508;-77
2023/10/14 05:34:14;;;;;;;0.10;0.10;;;12.00;99.90;;;;;;5012626;28;20044;-76
2023/10/14 05:36:40;;;;;;;0.05;0.05;;;12.10;99.90;;;;;;5012974;28;20048;-76
2023/10/14 05:39:06;;;;;;;0.10;0.10;;;11.70;99.90;;;;;;5011821;28;20118;-75
2023/10/14 05:41:33;;;;;;;0.50;0.50;;;11.60;99.90;;;;;;5012849;28;20439;-76
2023/10/14 05:43:59;;;;;;;7.32;0.20;;;11.60;99.90;;;;;;5012560;28;20026;-75
2023/10/14 05:46:25;;;;;;;0.00;0.00;;;11.40;99.90;;;;;;5012328;28;20513;-76
2023/10/14 05:48:53;;;;;;;0.00;0.00;;;11.60;99.90;;;;;;5012615;28;20026;-75
2023/10/14 05:51:20;;;;;;;0.00;0.00;;;11.60;99.90;;;;;;5028083;28;20030;-75
2023/10/14 05:53:48;;;;;;;4.28;0.40;;;11.90;99.90;;;;;;5013207;28;20030;-75
2023/10/14 05:56:14;;;;;;;0.05;0.05;;;12.00;99.90;;;;;;5016433;28;20096;-75
2023/10/14 05:58:41;;;;;;;0.45;0.45;;;11.90;99.90;;;;;;5031185;28;20482;-75
2023/10/14 06:01:11;;;;;;;0.95;0.95;;;11.80;99.90;;;;;;5016313;28;20040;-75
2023/10/14 06:03:38;;;;;;;3.63;0.57;;;11.50;99.90;;;;;;5015861;28;20040;-75
2023/10/14 06:06:09;;;;;;;0.05;0.05;;;11.50;99.90;;;;;;5016058;28;20383;-75
2023/10/14 06:08:38;;;;;;;0.10;0.10;;;11.30;99.90;;;;;;5015466;28;20022;-76
2023/10/14 06:11:07;;;;;;;13.82;0.88;;;11.20;99.90;;;;;;5014719;28;20034;-76
2023/10/14 06:13:36;;;;;;;0.00;0.00;;;11.30;99.90;;;;;;5014623;28;20045;-76
2023/10/14 06:16:09;;;;;;;0.10;0.10;;;11.30;99.90;;;;;;5016048;28;20026;-75
2023/10/14 06:18:37;;;;;;;1.65;0.25;;;11.30;99.90;;;;;;5015740;28;20554;-75
2023/10/14 06:21:05;;;;;;;0.60;0.60;;;11.50;99.90;;;;;;5011144;28;20014;-76
2023/10/14 06:23:35;;;;;;;0.10;0.10;;;11.50;99.90;;;;;;5012841;28;20030;-75
2023/10/14 06:26:00;;;;;;;0.00;0.00;;;11.50;99.90;;;;;;5014920;28;20037;-75
2023/10/14 06:28:29;;;;;;;0.10;0.10;;;11.40;99.90;;;;;;5015102;28;20430;-75
2023/10/14 06:30:55;;;;;;;0.60;0.50;;;11.30;99.90;;;;;;5014707;28;20025;-75
2023/10/14 06:33:26;;;;;;;0.88;0.45;;;11.40;99.90;;;;;;5014952;28;20014;-74
2023/10/14 06:35:53;;;;;;;0.15;0.15;;;11.50;99.90;;;;;;5014741;28;20030;-75
2023/10/14 06:38:19;;;;;;;0.10;0.10;;;11.40;99.90;;;;;;5014258;28;20069;-76
2023/10/14 06:40:55;;;;;;;0.57;0.57;;;11.60;99.90;;;;;;5014684;28;20065;-75
2023/10/14 06:43:26;;;;;;;0.10;0.10;;;11.60;99.90;;;;;;5014611;28;20045;-75
2023/10/14 06:45:53;;;;;;;0.40;0.20;;;11.80;99.90;;;;;;5014426;28;20048;-74
2023/10/14 06:48:19;;;;;;;0.10;0.10;;;11.70;99.90;;;;;;5014498;28;20040;-76
2023/10/14 06:50:48;;;;;;;0.10;0.10;;;11.80;99.90;;;;;;5012891;28;20026;-75
2023/10/14 06:53:15;;;;;;;0.10;0.10;;;11.80;99.90;;;;;;5014516;28;20034;-75
2023/10/14 06:55:42;;;;;;;0.30;0.30;;;11.80;99.90;;;;;;5007140;28;20038;-75
2023/10/14 06:58:11;;;;;;;2.97;1.27;;;11.50;99.90;;;;;;5014391;28;20041;-75
2023/10/14 07:00:40;;;;;;;0.50;0.50;;;11.40;99.90;;;;;;5015588;28;20113;-75
2023/10/14 07:03:14;;;;;;;0.30;0.30;;;11.30;99.90;;;;;;5014322;28;20036;-75
2023/10/14 07:05:46;;;;;;;34.53;1.58;;;11.60;99.90;;;;;;5012124;28;20438;-74
2023/10/14 07:08:19;;;;;;;4.20;0.90;;;11.70;99.90;;;;;;5014066;28;20030;-75
2023/10/14 07:10:47;;;;;;;0.17;0.17;;;11.80;99.90;;;;;;5014087;28;20136;-75
2023/10/14 07:13:13;;;;;;;0.00;0.00;;;11.80;99.90;;;;;;5014437;28;20475;-74
2023/10/14 07:15:41;;;;;;;0.20;0.20;;;12.00;99.90;;;;;;5014321;28;20076;-76
2023/10/14 07:18:08;;;;;;;0.00;0.00;;;12.00;99.90;;;;;;5013992;28;20042;-74
2023/10/14 07:20:35;;;;;;;0.10;0.10;;;12.00;99.90;;;;;;5009000;28;20112;-75
2023/10/14 07:23:02;;;;;;;19.70;0.85;;;12.10;99.90;;;;;;5013996;28;20021;-75
2023/10/14 07:25:35;;;;;;;0.10;0.10;;;11.80;99.90;;;;;;5013418;28;20041;-75
2023/10/14 07:28:07;;;;;;;0.10;0.10;;;11.80;99.90;;;;;;5012420;28;20029;-75
2023/10/14 07:30:34;;;;;;;0.00;0.00;;;12.10;99.90;;;;;;5010742;28;20117;-75
2023/10/14 07:33:01;;;;;;;0.03;0.03;;;12.00;99.90;;;;;;5011417;28;20515;-75
2023/10/14 07:35:27;;;;;;;6.32;0.52;;;12.20;99.90;;;;;;5011659;28;20026;-76
2023/10/14 07:37:53;;;;;;;0.00;0.00;;;12.50;99.90;;;;;;5012152;28;20603;-74
2023/10/14 07:40:23;;;;;;;0.03;0.03;;;12.50;99.90;;;;;;5013772;28;20378;-74
2023/10/14 07:42:54;;;;;;;1.27;0.30;;;12.90;99.90;;;;;;5013818;28;20375;-77
2023/10/14 07:45:21;;;;;;;3.95;1.10;;;12.40;99.90;;;;;;5012808;28;20028;-76
2023/10/14 07:47:48;;;;;;;0.17;0.17;;;12.20;99.90;;;;;;5013968;28;20018;-74
2023/10/14 07:50:15;;;;;;;0.10;0.10;;;12.30;99.90;;;;;;5013773;28;20026;-74
2023/10/14 07:52:42;;;;;;;3.15;1.02;;;12.50;99.90;;;;;;5013875;28;20022;-75
2023/10/14 07:55:15;;;;;;;0.85;0.77;;;12.40;99.90;;;;;;5013819;28;20382;-74
2023/10/14 07:57:42;;;;;;;1.48;1.02;;;12.10;99.90;;;;;;5013857;28;20105;-74
2023/10/14 08:00:12;;;;;;;0.75;0.75;;;11.90;99.90;;;;;;5013571;28;20088;-75
2023/10/14 08:02:42;;;;;;;0.10;0.10;;;12.10;99.90;;;;;;5013690;28;20509;-75
2023/10/14 08:05:09;;;;;;;2.50;0.57;;;12.50;99.90;;;;;;5013357;28;20076;-75
2023/10/14 08:07:42;;;;;;;0.08;0.08;;;12.70;99.90;;;;;;5013665;28;20108;-74
2023/10/14 08:10:18;;;;;;;0.30;0.30;;;12.90;99.90;;;;;;5012305;28;20131;-75
2023/10/14 08:12:50;;;;;;;0.40;0.13;;;12.80;99.90;;;;;;5013459;28;20418;-77
2023/10/14 08:15:19;;;;;;;;;;;12.70;99.90;;;;;;5013878;28;20080;-76
2023/10/14 08:17:45;;;;;;;0.10;0.10;;;12.80;99.90;;;;;;5012551;28;19928;-75
2023/10/14 08:20:18;;;;;;;0.10;0.10;;;12.60;99.90;;;;;;5013369;28;20018;-76
2023/10/14 08:22:46;;;;;;;0.35;0.35;;;12.50;99.90;;;;;;5013499;28;20046;-79
2023/10/14 08:25:18;;;;;;;0.57;0.20;;;12.70;99.90;;;;;;5013485;28;20044;-77
2023/10/14 08:27:47;;;;;;;0.38;0.38;;;13.00;99.90;;;;;;5011928;28;20056;-76
2023/10/14 08:30:13;;;;;;;0.98;0.85;;;13.10;99.90;;;;;;5013227;28;20026;-76
2023/10/14 08:32:40;;;;;;;0.28;0.28;;;13.40;99.90;;;;;;5012727;28;20538;-78
2023/10/14 08:35:15;;;;;;;5.50;1.77;;;13.50;99.90;;;;;;5013125;28;20033;-76
2023/10/14 08:37:47;;;;;;;10.25;1.77;;;13.70;99.90;;;;;;5011478;28;20026;-76
2023/10/14 08:40:20;;;;;;;6.15;3.72;;;13.60;99.90;;;;;;5012882;28;20034;-75
2023/10/14 08:43:05;;;;;;;0.00;0.00;;;13.60;99.90;;;;;;5012864;28;20459;-77
2023/10/14 08:45:36;;;;;;;1.75;0.85;;;13.70;99.90;;;;;;5012974;28;20044;-75
2023/10/14 08:48:03;;;;;;;0.17;0.17;;;13.90;99.90;;;;;;5012484;28;20109;-76
2023/10/14 08:50:29;;;;;;;3.20;1.23;;;13.90;99.90;;;;;;5013201;28;20279;-77
2023/10/14 08:53:01;;;;;;;0.47;0.40;;;14.20;99.90;;;;;;5012639;28;20064;-80
2023/10/14 08:55:28;;;;;;;;;;;14.60;99.90;;;;;;5006322;28;20469;-75
2023/10/14 08:58:01;;;;;;;0.10;0.10;;;14.40;99.90;;;;;;5010968;28;20393;-76
2023/10/14 09:00:29;;;;;;;0.10;0.10;;;14.50;99.90;;;;;;5012130;28;20036;-76
2023/10/14 09:02:57;;;;;;;0.08;0.08;;;14.90;99.90;;;;;;5011082;28;20026;-74
2023/10/14 09:05:26;;;;;;;2.50;0.70;;;14.90;99.90;;;;;;5012808;28;20084;-74
2023/10/14 09:07:55;;;;;;;6.40;0.70;;;14.60;99.90;;;;;;5012997;28;20044;-74
2023/10/14 09:10:24;;;;;;;0.28;0.28;;;14.20;99.90;;;;;;5012777;28;20367;-74
2023/10/14 09:12:55;;;;;;;1.13;1.02;;;14.50;99.90;;;;;;5012917;28;20576;-76
2023/10/14 09:15:21;;;;;;;0.00;0.00;;;15.30;99.90;;;;;;5012999;28;20486;-75
2023/10/14 09:17:48;;;;;;;6.55;2.15;;;15.10;99.90;;;;;;5012043;28;20485;-75
2023/10/14 09:20:33;;;;;;;0.30;0.30;;;15.10;99.90;;;;;;5012611;28;20496;-74
2023/10/14 09:23:17;;;;;;;4.95;0.35;;;14.70;99.90;;;;;;5012351;28;20022;-74
2023/10/14 09:25:52;;;;;;;0.00;0.00;;;14.70;99.90;;;;;;5011341;28;20033;-74
2023/10/14 09:28:20;;;;;;;0.00;0.00;;;14.70;99.90;;;;;;5012635;28;20056;-74
2023/10/14 09:30:50;;;;;;;0.00;0.00;;;15.20;99.90;;;;;;5015084;28;20080;-74
2023/10/14 09:33:43;;;;;;;0.00;0.00;;;15.40;99.90;;;;;;5016539;28;20344;-74
2023/10/14 09:36:11;;;;;;;0.13;0.10;;;15.20;99.90;;;;;;5003111;28;20045;-75
2023/10/14 09:38:39;;;;;;;0.22;0.22;;;14.60;99.90;;;;;;5016536;28;20497;-76
2023/10/14 09:41:14;;;;;;;0.05;0.05;;;14.50;99.90;;;;;;5015132;28;20402;-76
2023/10/14 09:43:42;;;;;;;5.47;1.90;;;14.30;99.90;;;;;;5007332;28;20116;-75
2023/10/14 09:46:11;;;;;;;0.10;0.10;;;14.20;99.90;;;;;;5015953;28;20029;-75
2023/10/14 09:48:37;;;;;;;0.00;0.00;;;14.20;99.90;;;;;;5016248;28;20118;-76
2023/10/14 09:51:05;;;;;;;0.00;0.00;;;14.30;99.90;;;;;;5015705;28;20037;-77
2023/10/14 09:53:36;;;;;;;0.00;0.00;;;14.50;99.90;;;;;;5014908;28;20064;-77
2023/10/14 09:56:04;;;;;;;0.03;0.03;;;14.60;99.90;;;;;;5016164;28;20065;-77
2023/10/14 09:58:34;;;;;;;2.78;0.60;;;14.90;99.90;;;;;;5016058;28;20045;-77
2023/10/14 10:01:01;;;;;;;1.98;0.93;;;15.00;99.90;;;;;;5014915;28;20026;-77
2023/10/14 10:03:31;;;;;;;0.10;0.10;;;15.00;99.90;;;;;;5016093;28;20038;-77
2023/10/14 10:06:14;;;;;;;0.20;0.20;;;15.00;99.90;;;;;;5016205;28;20069;-77
2023/10/14 10:08:52;;;;;;;0.70;0.63;;;14.70;99.90;;;;;;5015856;28;20471;-77
2023/10/14 10:11:23;;;;;;;0.20;0.20;;;14.40;99.90;;;;;;5015101;28;20128;-77
2023/10/14 10:13:59;;;;;;;2.08;0.88;;;14.30;99.90;;;;;;5015551;28;20038;-77
2023/10/14 10:16:31;;;;;;;5.00;2.00;;;14.40;99.90;;;;;;5015862;28;20041;-77
2023/10/14 10:19:01;;;;;;;6.68;0.30;;;14.80;99.90;;;;;;5015338;28;20030;-77
2023/10/14 10:21:34;;;;;;;5.60;1.38;;;15.00;99.90;;;;;;5016098;28;20486;-77
2023/10/14 10:24:23;;;;;;;0.00;0.00;;;15.40;99.90;;;;;;5015798;28;20037;-77
2023/10/14 10:27:03;;;;;;;8.40;0.95;;;15.60;99.90;;;;;;5015730;28;20028;-76
2023/10/14 10:29:33;;;;;;;0.03;0.03;;;15.30;99.90;;;;;;5015275;28;20463;-77
2023/10/14 10:32:11;;;;;;;0.10;0.10;;;14.90;99.90;;;;;;5015745;28;20040;-76
2023/10/14 10:35:06;;;;;;;1.25;0.75;;;15.10;99.90;;;;;;5014396;28;20049;-76
2023/10/14 10:37:33;;;;;;;0.10;0.10;;;15.90;99.90;;;;;;5015101;28;20034;-76
2023/10/14 10:39:59;;;;;;;2.40;0.65;;;16.70;99.90;;;;;;5014500;28;20038;-76
2023/10/14 10:42:25;;;;;;;0.30;0.25;;;16.50;99.90;;;;;;5014780;28;20497;-76
2023/10/14 10:44:51;;;;;;;0.03;0.03;;;17.20;99.90;;;;;;5015069;28;20029;-76
2023/10/14 10:47:17;;;;;;;2.80;0.80;;;17.30;99.90;;;;;;5015239;28;20029;-77
2023/10/14 10:50:03;;;;;;;0.52;0.47;;;17.20;99.90;;;;;;5015110;28;20639;-76
2023/10/14 10:52:32;;;;;;;0.13;0.13;;;17.70;99.90;;;;;;5015201;28;20124;-76
2023/10/14 10:54:58;;;;;;;0.55;0.55;;;17.60;99.90;;;;;;5014867;28;20101;-76
2023/10/14 10:57:25;;;;;;;0.88;0.25;;;18.00;99.90;;;;;;5013426;28;20026;-76
2023/10/14 10:59:51;;;;;;;0.85;0.40;;;17.60;99.90;;;;;;5014702;28;20538;-75
2023/10/14 11:02:20;;;;;;;0.73;0.73;;;18.00;99.90;;;;;;5013555;28;20045;-76
2023/10/14 11:04:48;;;;;;;0.00;0.00;;;17.50;99.90;;;;;;5030177;28;20048;-76
2023/10/14 11:07:14;;;;;;;2.63;1.75;;;16.80;99.90;;;;;;5014644;28;20044;-75
2023/10/14 11:09:40;;;;;;;4.38;1.13;;;16.60;99.90;;;;;;5014809;28;20105;-75
2023/10/14 11:12:11;;;;;;;4.65;1.20;;;16.40;99.90;;;;;;5029792;28;20059;-75
2023/10/14 11:14:38;;;;;;;0.20;0.10;;;16.00;99.90;;;;;;5030061;28;20381;-75
2023/10/14 11:17:04;;;;;;;0.63;0.40;;;15.80;99.90;;;;;;5014520;28;20049;-75
2023/10/14 11:19:32;;;;;;;1.02;0.65;;;15.40;99.90;;;;;;5014706;28;20049;-74
2023/10/14 11:21:59;;;;;;;1.33;0.75;;;15.30;99.90;;;;;;5014849;28;20049;-75
2023/10/14 11:24:26;;;;;;;0.32;0.10;;;15.10;99.90;;;;;;5014782;28;20038;-75
2023/10/14 11:26:53;;;;;;;7.60;1.20;;;14.90;99.90;;;;;;5012930;28;20414;-75
2023/10/14 11:29:24;;;;;;;1.77;0.80;;;15.20;99.90;;;;;;5014236;28;20469;-75
2023/10/14 11:31:59;;;;;;;15.77;0.65;;;16.00;99.90;;;;;;5014308;28;20033;-75
2023/10/14 11:34:25;;;;;;;3.08;0.75;;;16.90;99.90;;;;;;5014341;28;20150;-75
2023/10/14 11:36:51;;;;;;;1.08;0.73;;;17.30;99.90;;;;;;5014351;28;20573;-75
2023/10/14 11:39:18;;;;;;;0.32;0.30;;;16.80;99.90;;;;;;5014428;28;20394;-75
2023/10/14 11:41:45;;;;;;;0.88;0.65;;;17.50;99.90;;;;;;5014012;28;20037;-75
2023/10/14 11:44:17;;;;;;;0.50;0.50;;;18.00;99.70;;;;;;5012884;28;20558;-76
2023/10/14 11:46:44;;;;;;;1.83;0.88;;;18.90;98.10;;;;;;5014045;28;20044;-76
2023/10/14 11:49:11;;;;;;;4.07;0.80;;;18.50;97.60;;;;;;5014260;28;20022;-75
2023/10/14 11:51:44;;;;;;;0.17;0.17;;;18.80;97.20;;;;;;5013795;28;20418;-76
2023/10/14 11:54:11;;;;;;;0.65;0.35;;;18.00;97.00;;;;;;5013790;28;20065;-75
2023/10/14 11:56:41;;;;;;;5.57;1.45;;;16.80;99.80;;;;;;5013323;28;20025;-76
2023/10/14 11:59:13;;;;;;;0.35;0.17;;;16.30;99.90;;;;;;5012740;28;20061;-75
2023/10/14 12:01:44;;;;;;;7.70;2.00;;;16.10;99.90;;;;;;5013748;28;20029;-76
2023/10/14 12:04:14;;;;;;;11.80;0.75;;;16.20;99.90;;;;;;5014253;28;20448;-75
2023/10/14 12:06:44;;;;;;;0.17;0.15;;;16.70;99.90;;;;;;5013842;28;20049;-76
2023/10/14 12:09:10;;;;;;;0.00;0.00;;;17.00;99.90;;;;;;5013903;28;20497;-76
2023/10/14 12:11:41;;;;;;;1.00;0.75;;;17.80;99.80;;;;;;5013774;28;20375;-76
2023/10/14 12:14:11;;;;;;;0.20;0.20;;;18.40;97.60;;;;;;5013829;28;20103;-75
2023/10/14 12:16:40;;;;;;;2.22;1.13;;;18.40;97.60;;;;;;5013648;28;20026;-76
2023/10/14 12:19:06;;;;;;;2.20;0.35;;;19.00;97.10;;;;;;5013636;28;20026;-76
2023/10/14 12:21:32;;;;;;;0.20;0.10;;;19.70;94.80;;;;;;5012221;28;20471;-77
2023/10/14 12:24:03;;;;;;;0.00;0.00;;;20.10;93.60;;;;;;5013676;28;20076;-77
2023/10/14 12:26:33;;;;;;;13.57;1.95;;;19.50;94.50;;;;;;5013107;28;20022;-76
2023/10/14 12:28:59;;;;;;;5.15;1.45;;;19.00;94.90;;;;;;5013436;28;20021;-76
2023/10/14 12:31:27;;;;;;;0.03;0.03;;;17.60;97.20;;;;;;5013378;28;20033;-75
2023/10/14 12:33:54;;;;;;;2.15;0.82;;;16.80;99.80;;;;;;5013531;28;20026;-75
2023/10/14 12:36:22;;;;;;;1.98;0.43;;;16.30;99.90;;;;;;5012358;28;20033;-75
2023/10/14 12:38:48;;;;;;;1.45;0.25;;;16.10;99.90;;;;;;5012771;28;20097;-76
2023/10/14 12:41:14;;;;;;;5.60;0.75;;;17.10;99.70;;;;;;5013432;28;20026;-76
2023/10/14 12:43:40;;;;;;;0.10;0.10;;;18.20;97.00;;;;;;5013201;28;20029;-76
2023/10/14 12:46:12;;;;;;;1.88;0.47;;;18.80;96.40;;;;;;5013154;28;20474;-76
2023/10/14 12:48:39;;;;;;;0.65;0.30;;;19.20;96.10;;;;;;5012897;28;20116;-76
2023/10/14 12:51:11;;;;;;;2.38;1.08;;;19.10;95.90;;;;;;5012555;28;20030;-76
2023/10/14 12:53:47;;;;;;;2.67;1.25;;;20.10;95.30;;;;;;5011577;28;20112;-76
2023/10/14 12:56:22;;;;;;;0.15;0.15;;;19.90;94.70;;;;;;5013132;28;20028;-75
2023/10/14 12:58:48;;;;;;;0.63;0.38;;;18.60;94.70;;;;;;5027817;28;20486;-76
2023/10/14 13:01:17;;;;;;;4.43;1.50;;;19.30;95.10;;;;;;5012094;28;20026;-75
2023/10/14 13:03:51;;;;;;;0.10;0.10;;;18.20;95.20;;;;;;5011179;28;20041;-75
2023/10/14 13:06:23;;;;;;;0.03;0.03;;;18.70;95.70;;;;;;5013241;28;20161;-75
2023/10/14 13:09:00;;;;;;;3.85;1.55;;;19.10;94.70;;;;;;5010978;28;20033;-76
2023/10/14 13:11:30;;;;;;;0.00;0.00;;;19.10;93.90;;;;;;5012827;28;20033;-75
2023/10/14 13:13:58;;;;;;;3.20;1.10;;;19.50;93.80;;;;;;5012869;28;20026;-75
2023/10/14 13:16:25;;;;;;;0.73;0.28;;;18.10;95.30;;;;;;5012891;28;20022;-75
2023/10/14 13:18:53;;;;;;;0.28;0.08;;;17.80;97.20;;;;;;5012474;28;20037;-75
2023/10/14 13:21:21;;;;;;;0.00;0.00;;;17.30;96.80;;;;;;5013021;28;20031;-75
2023/10/14 13:23:47;;;;;;;3.10;1.08;;;18.10;97.00;;;;;;5012220;28;20038;-76
2023/10/14 13:26:15;;;;;;;0.75;0.30;;;18.70;95.50;;;;;;5013070;28;20421;-76
2023/10/14 13:28:50;;;;;;;4.00;2.15;;;18.80;96.00;;;;;;5012726;28;20028;-76
2023/10/14 13:31:17;;;;;;;1.13;0.82;;;17.80;96.80;;;;;;5014481;28;20033;-76
2023/10/14 13:33:46;;;;;;;1.52;0.68;;;18.30;95.80;;;;;;5012694;28;20057;-75
2023/10/14 13:36:22;;;;;;;10.57;1.58;;;18.30;96.40;;;;;;5028153;28;20053;-76
2023/10/14 13:38:48;;;;;;;2.83;0.93;;;17.80;96.60;;;;;;5011031;28;20494;-76
2023/10/14 13:41:14;;;;;;;1.23;1.02;;;17.30;96.40;;;;;;5027845;28;20029;-75
2023/10/14 13:43:43;;;;;;;0.10;0.10;;;17.10;98.10;;;;;;5012551;28;20036;-76